sensor_id;sensor_type;location;lat;lon;timestamp;P1;durP1;ratioP1;P2;durP2;ratioP2
39750;SDS011;37579;51.074;17.004;2022-12-18T00:01:36;9.30;;;6.03;;
39750;SDS011;37579;51.074;17.004;2022-12-18T00:04:06;9.38;;;6.10;;
39750;SDS011;37579;51.074;17.004;2022-12-18T00:06:38;7.20;;;5.00;;
39750;SDS011;37579;51.074;17.004;2022-12-18T00:09:03;9.15;;;6.03;;
39750;SDS011;37579;51.074;17.004;2022-12-18T00:11:29;7.95;;;5.55;;
39750;SDS011;37579;51.074;17.004;2022-12-18T00:13:57;9.05;;;5.82;;
39750;SDS011;37579;51.074;17.004;2022-12-18T00:16:24;8.55;;;5.72;;
39750;SDS011;37579;51.074;17.004;2022-12-18T00:18:52;7.28;;;5.00;;
39750;SDS011;37579;51.074;17.004;2022-12-18T00:21:19;8.43;;;5.68;;
39750;SDS011;37579;51.074;17.004;2022-12-18T00:23:46;7.45;;;5.43;;
39750;SDS011;37579;51.074;17.004;2022-12-18T00:26:14;7.20;;;4.97;;
39750;SDS011;37579;51.074;17.004;2022-12-18T00:29:02;7.07;;;4.90;;
39750;SDS011;37579;51.074;17.004;2022-12-18T00:31:32;8.05;;;5.47;;
39750;SDS011;37579;51.074;17.004;2022-12-18T00:33:59;7.43;;;5.45;;
39750;SDS011;37579;51.074;17.004;2022-12-18T00:36:27;8.15;;;5.60;;
39750;SDS011;37579;51.074;17.004;2022-12-18T00:38:56;7.97;;;5.68;;
39750;SDS011;37579;51.074;17.004;2022-12-18T00:41:23;6.55;;;5.13;;
39750;SDS011;37579;51.074;17.004;2022-12-18T00:44:09;8.07;;;5.30;;
39750;SDS011;37579;51.074;17.004;2022-12-18T00:46:36;8.00;;;5.25;;
39750;SDS011;37579;51.074;17.004;2022-12-18T00:49:02;7.78;;;5.28;;
39750;SDS011;37579;51.074;17.004;2022-12-18T00:51:28;8.10;;;5.55;;
39750;SDS011;37579;51.074;17.004;2022-12-18T00:53:54;7.10;;;5.05;;
39750;SDS011;37579;51.074;17.004;2022-12-18T00:56:19;6.68;;;5.18;;
39750;SDS011;37579;51.074;17.004;2022-12-18T00:58:45;6.97;;;4.85;;
39750;SDS011;37579;51.074;17.004;2022-12-18T01:01:11;7.80;;;5.25;;
39750;SDS011;37579;51.074;17.004;2022-12-18T01:03:37;7.03;;;4.93;;
39750;SDS011;37579;51.074;17.004;2022-12-18T01:06:06;5.85;;;4.38;;
39750;SDS011;37579;51.074;17.004;2022-12-18T01:08:37;7.80;;;5.28;;
39750;SDS011;37579;51.074;17.004;2022-12-18T01:11:10;7.03;;;5.18;;
39750;SDS011;37579;51.074;17.004;2022-12-18T01:13:40;5.47;;;4.47;;
39750;SDS011;37579;51.074;17.004;2022-12-18T01:16:06;8.13;;;5.47;;
39750;SDS011;37579;51.074;17.004;2022-12-18T01:18:34;7.30;;;5.20;;
39750;SDS011;37579;51.074;17.004;2022-12-18T01:21:00;7.70;;;5.18;;
39750;SDS011;37579;51.074;17.004;2022-12-18T01:23:26;7.18;;;5.63;;
39750;SDS011;37579;51.074;17.004;2022-12-18T01:25:52;8.13;;;5.60;;
39750;SDS011;37579;51.074;17.004;2022-12-18T01:28:17;6.80;;;5.00;;
39750;SDS011;37579;51.074;17.004;2022-12-18T01:30:43;6.57;;;4.38;;
39750;SDS011;37579;51.074;17.004;2022-12-18T01:33:09;6.22;;;4.75;;
39750;SDS011;37579;51.074;17.004;2022-12-18T01:35:39;6.05;;;4.75;;
39750;SDS011;37579;51.074;17.004;2022-12-18T01:38:06;6.55;;;4.85;;
39750;SDS011;37579;51.074;17.004;2022-12-18T01:40:32;8.88;;;5.07;;
39750;SDS011;37579;51.074;17.004;2022-12-18T01:42:58;6.78;;;4.88;;
39750;SDS011;37579;51.074;17.004;2022-12-18T01:45:25;6.90;;;4.95;;
39750;SDS011;37579;51.074;17.004;2022-12-18T01:48:05;6.82;;;4.55;;
39750;SDS011;37579;51.074;17.004;2022-12-18T01:50:35;6.18;;;4.63;;
39750;SDS011;37579;51.074;17.004;2022-12-18T01:53:17;7.13;;;4.90;;
39750;SDS011;37579;51.074;17.004;2022-12-18T01:55:48;7.80;;;4.82;;
39750;SDS011;37579;51.074;17.004;2022-12-18T01:58:17;6.70;;;4.90;;
39750;SDS011;37579;51.074;17.004;2022-12-18T02:00:44;6.13;;;4.53;;
39750;SDS011;37579;51.074;17.004;2022-12-18T02:03:11;6.95;;;4.57;;
39750;SDS011;37579;51.074;17.004;2022-12-18T02:05:42;6.80;;;5.28;;
39750;SDS011;37579;51.074;17.004;2022-12-18T02:18:59;5.47;;;4.20;;
39750;SDS011;37579;51.074;17.004;2022-12-18T02:26:55;6.25;;;4.40;;
39750;SDS011;37579;51.074;17.004;2022-12-18T02:29:31;7.20;;;4.82;;
39750;SDS011;37579;51.074;17.004;2022-12-18T02:32:03;6.75;;;4.53;;
39750;SDS011;37579;51.074;17.004;2022-12-18T02:34:37;6.40;;;4.70;;
39750;SDS011;37579;51.074;17.004;2022-12-18T02:37:09;6.93;;;4.78;;
39750;SDS011;37579;51.074;17.004;2022-12-18T02:39:38;6.15;;;4.32;;
39750;SDS011;37579;51.074;17.004;2022-12-18T02:42:08;6.97;;;4.88;;
39750;SDS011;37579;51.074;17.004;2022-12-18T02:44:45;6.43;;;4.53;;
39750;SDS011;37579;51.074;17.004;2022-12-18T02:47:17;6.28;;;4.63;;
39750;SDS011;37579;51.074;17.004;2022-12-18T03:03:29;6.03;;;4.20;;
39750;SDS011;37579;51.074;17.004;2022-12-18T03:06:14;5.55;;;3.95;;
39750;SDS011;37579;51.074;17.004;2022-12-18T03:08:44;6.85;;;4.75;;
39750;SDS011;37579;51.074;17.004;2022-12-18T03:11:15;6.10;;;4.33;;
39750;SDS011;37579;51.074;17.004;2022-12-18T03:14:01;5.05;;;3.95;;
39750;SDS011;37579;51.074;17.004;2022-12-18T03:16:29;5.15;;;4.10;;
39750;SDS011;37579;51.074;17.004;2022-12-18T03:19:01;6.47;;;4.32;;
39750;SDS011;37579;51.074;17.004;2022-12-18T03:21:41;6.50;;;4.65;;
39750;SDS011;37579;51.074;17.004;2022-12-18T03:24:12;6.20;;;4.50;;
39750;SDS011;37579;51.074;17.004;2022-12-18T03:26:41;6.55;;;4.63;;
39750;SDS011;37579;51.074;17.004;2022-12-18T03:29:14;6.90;;;4.63;;
39750;SDS011;37579;51.074;17.004;2022-12-18T03:31:47;6.13;;;4.20;;
39750;SDS011;37579;51.074;17.004;2022-12-18T03:34:23;6.20;;;4.65;;
39750;SDS011;37579;51.074;17.004;2022-12-18T03:36:54;6.50;;;5.03;;
39750;SDS011;37579;51.074;17.004;2022-12-18T03:39:22;6.18;;;4.40;;
39750;SDS011;37579;51.074;17.004;2022-12-18T03:47:28;5.85;;;4.43;;
39750;SDS011;37579;51.074;17.004;2022-12-18T03:52:41;5.65;;;4.00;;
39750;SDS011;37579;51.074;17.004;2022-12-18T03:55:08;6.25;;;4.22;;
39750;SDS011;37579;51.074;17.004;2022-12-18T03:57:36;6.85;;;4.53;;
39750;SDS011;37579;51.074;17.004;2022-12-18T04:00:07;5.32;;;4.00;;
39750;SDS011;37579;51.074;17.004;2022-12-18T04:02:59;5.68;;;4.50;;
39750;SDS011;37579;51.074;17.004;2022-12-18T04:05:35;5.32;;;4.03;;
39750;SDS011;37579;51.074;17.004;2022-12-18T04:08:02;5.70;;;4.45;;
39750;SDS011;37579;51.074;17.004;2022-12-18T04:10:31;4.93;;;3.78;;
39750;SDS011;37579;51.074;17.004;2022-12-18T04:12:59;6.07;;;4.20;;
39750;SDS011;37579;51.074;17.004;2022-12-18T04:15:25;5.50;;;3.85;;
39750;SDS011;37579;51.074;17.004;2022-12-18T04:17:51;7.00;;;4.25;;
39750;SDS011;37579;51.074;17.004;2022-12-18T04:20:21;4.97;;;3.97;;
39750;SDS011;37579;51.074;17.004;2022-12-18T04:22:47;6.00;;;4.00;;
39750;SDS011;37579;51.074;17.004;2022-12-18T04:25:13;5.13;;;3.97;;
39750;SDS011;37579;51.074;17.004;2022-12-18T04:27:49;5.55;;;4.10;;
39750;SDS011;37579;51.074;17.004;2022-12-18T04:30:15;6.28;;;4.00;;
39750;SDS011;37579;51.074;17.004;2022-12-18T04:32:40;5.40;;;3.80;;
39750;SDS011;37579;51.074;17.004;2022-12-18T04:35:08;4.88;;;4.13;;
39750;SDS011;37579;51.074;17.004;2022-12-18T04:37:37;6.07;;;4.55;;
39750;SDS011;37579;51.074;17.004;2022-12-18T04:40:03;5.65;;;4.20;;
39750;SDS011;37579;51.074;17.004;2022-12-18T04:42:38;4.70;;;3.58;;
39750;SDS011;37579;51.074;17.004;2022-12-18T04:45:05;5.60;;;4.20;;
39750;SDS011;37579;51.074;17.004;2022-12-18T04:47:31;10.18;;;4.20;;
39750;SDS011;37579;51.074;17.004;2022-12-18T04:49:57;6.80;;;4.25;;
39750;SDS011;37579;51.074;17.004;2022-12-18T04:52:23;6.40;;;4.00;;
39750;SDS011;37579;51.074;17.004;2022-12-18T04:54:49;5.68;;;4.10;;
39750;SDS011;37579;51.074;17.004;2022-12-18T04:57:14;5.00;;;4.03;;
39750;SDS011;37579;51.074;17.004;2022-12-18T04:59:40;5.55;;;4.43;;
39750;SDS011;37579;51.074;17.004;2022-12-18T05:02:06;4.65;;;3.65;;
39750;SDS011;37579;51.074;17.004;2022-12-18T05:04:32;4.95;;;3.72;;
39750;SDS011;37579;51.074;17.004;2022-12-18T05:06:57;6.15;;;4.28;;
39750;SDS011;37579;51.074;17.004;2022-12-18T05:09:23;6.40;;;4.25;;
39750;SDS011;37579;51.074;17.004;2022-12-18T05:11:49;6.53;;;4.80;;
39750;SDS011;37579;51.074;17.004;2022-12-18T05:14:15;5.85;;;4.10;;
39750;SDS011;37579;51.074;17.004;2022-12-18T05:16:40;5.55;;;3.80;;
39750;SDS011;37579;51.074;17.004;2022-12-18T05:19:06;4.78;;;4.10;;
39750;SDS011;37579;51.074;17.004;2022-12-18T05:21:32;6.45;;;3.95;;
39750;SDS011;37579;51.074;17.004;2022-12-18T05:23:58;4.55;;;3.83;;
39750;SDS011;37579;51.074;17.004;2022-12-18T05:26:24;5.53;;;4.20;;
39750;SDS011;37579;51.074;17.004;2022-12-18T05:28:50;5.65;;;3.90;;
39750;SDS011;37579;51.074;17.004;2022-12-18T05:31:15;5.88;;;4.13;;
39750;SDS011;37579;51.074;17.004;2022-12-18T05:33:41;4.43;;;3.50;;
39750;SDS011;37579;51.074;17.004;2022-12-18T05:36:08;5.00;;;3.88;;
39750;SDS011;37579;51.074;17.004;2022-12-18T05:38:35;5.60;;;4.00;;
39750;SDS011;37579;51.074;17.004;2022-12-18T05:41:02;5.50;;;4.13;;
39750;SDS011;37579;51.074;17.004;2022-12-18T05:43:28;6.25;;;4.30;;
39750;SDS011;37579;51.074;17.004;2022-12-18T05:45:54;4.43;;;3.33;;
39750;SDS011;37579;51.074;17.004;2022-12-18T05:48:21;5.07;;;4.07;;
39750;SDS011;37579;51.074;17.004;2022-12-18T05:50:48;4.68;;;3.78;;
39750;SDS011;37579;51.074;17.004;2022-12-18T05:53:15;5.35;;;4.10;;
39750;SDS011;37579;51.074;17.004;2022-12-18T05:55:43;4.97;;;3.67;;
39750;SDS011;37579;51.074;17.004;2022-12-18T05:58:10;5.93;;;4.15;;
39750;SDS011;37579;51.074;17.004;2022-12-18T06:00:37;9.38;;;4.13;;
39750;SDS011;37579;51.074;17.004;2022-12-18T06:03:07;5.85;;;3.88;;
39750;SDS011;37579;51.074;17.004;2022-12-18T06:05:37;5.13;;;3.65;;
39750;SDS011;37579;51.074;17.004;2022-12-18T06:08:04;5.13;;;3.85;;
39750;SDS011;37579;51.074;17.004;2022-12-18T06:10:30;5.68;;;3.60;;
39750;SDS011;37579;51.074;17.004;2022-12-18T06:12:56;5.63;;;3.83;;
39750;SDS011;37579;51.074;17.004;2022-12-18T06:15:22;6.05;;;4.10;;
39750;SDS011;37579;51.074;17.004;2022-12-18T06:17:48;5.28;;;3.83;;
39750;SDS011;37579;51.074;17.004;2022-12-18T06:20:13;5.82;;;4.10;;
39750;SDS011;37579;51.074;17.004;2022-12-18T06:22:39;6.22;;;4.10;;
39750;SDS011;37579;51.074;17.004;2022-12-18T06:25:05;5.32;;;3.78;;
39750;SDS011;37579;51.074;17.004;2022-12-18T06:27:32;5.70;;;4.10;;
39750;SDS011;37579;51.074;17.004;2022-12-18T06:29:59;5.30;;;4.32;;
39750;SDS011;37579;51.074;17.004;2022-12-18T06:32:25;5.93;;;4.13;;
39750;SDS011;37579;51.074;17.004;2022-12-18T06:34:51;5.18;;;3.92;;
39750;SDS011;37579;51.074;17.004;2022-12-18T06:37:18;7.22;;;4.65;;
39750;SDS011;37579;51.074;17.004;2022-12-18T06:39:44;4.70;;;3.90;;
39750;SDS011;37579;51.074;17.004;2022-12-18T06:42:10;5.47;;;4.30;;
39750;SDS011;37579;51.074;17.004;2022-12-18T06:44:36;6.68;;;4.65;;
39750;SDS011;37579;51.074;17.004;2022-12-18T06:47:02;5.88;;;4.35;;
39750;SDS011;37579;51.074;17.004;2022-12-18T06:49:28;5.55;;;4.30;;
39750;SDS011;37579;51.074;17.004;2022-12-18T06:51:54;6.78;;;4.80;;
39750;SDS011;37579;51.074;17.004;2022-12-18T06:54:19;5.65;;;4.25;;
39750;SDS011;37579;51.074;17.004;2022-12-18T06:56:45;5.82;;;4.35;;
39750;SDS011;37579;51.074;17.004;2022-12-18T06:59:12;6.07;;;4.25;;
39750;SDS011;37579;51.074;17.004;2022-12-18T07:01:38;5.85;;;4.53;;
39750;SDS011;37579;51.074;17.004;2022-12-18T07:04:04;5.68;;;4.13;;
39750;SDS011;37579;51.074;17.004;2022-12-18T07:06:29;5.43;;;4.15;;
39750;SDS011;37579;51.074;17.004;2022-12-18T07:08:55;5.50;;;4.30;;
39750;SDS011;37579;51.074;17.004;2022-12-18T07:11:21;5.28;;;4.30;;
39750;SDS011;37579;51.074;17.004;2022-12-18T07:13:48;5.28;;;4.18;;
39750;SDS011;37579;51.074;17.004;2022-12-18T07:16:15;6.50;;;4.82;;
39750;SDS011;37579;51.074;17.004;2022-12-18T07:18:44;6.47;;;4.63;;
39750;SDS011;37579;51.074;17.004;2022-12-18T07:21:11;5.68;;;4.38;;
39750;SDS011;37579;51.074;17.004;2022-12-18T07:23:39;6.50;;;5.00;;
39750;SDS011;37579;51.074;17.004;2022-12-18T07:26:09;6.07;;;4.60;;
39750;SDS011;37579;51.074;17.004;2022-12-18T07:28:37;7.13;;;4.95;;
39750;SDS011;37579;51.074;17.004;2022-12-18T07:31:04;5.70;;;4.38;;
39750;SDS011;37579;51.074;17.004;2022-12-18T07:33:32;6.60;;;5.13;;
39750;SDS011;37579;51.074;17.004;2022-12-18T07:35:59;6.50;;;4.93;;
39750;SDS011;37579;51.074;17.004;2022-12-18T07:38:25;6.75;;;5.10;;
39750;SDS011;37579;51.074;17.004;2022-12-18T07:40:51;5.50;;;4.40;;
39750;SDS011;37579;51.074;17.004;2022-12-18T07:43:17;5.55;;;4.38;;
39750;SDS011;37579;51.074;17.004;2022-12-18T07:45:43;6.03;;;4.57;;
39750;SDS011;37579;51.074;17.004;2022-12-18T07:48:09;6.22;;;4.57;;
39750;SDS011;37579;51.074;17.004;2022-12-18T07:50:35;5.97;;;4.72;;
39750;SDS011;37579;51.074;17.004;2022-12-18T07:53:02;6.22;;;4.60;;
39750;SDS011;37579;51.074;17.004;2022-12-18T07:55:30;5.38;;;4.28;;
39750;SDS011;37579;51.074;17.004;2022-12-18T07:57:56;7.70;;;4.93;;
39750;SDS011;37579;51.074;17.004;2022-12-18T08:00:22;8.18;;;5.20;;
39750;SDS011;37579;51.074;17.004;2022-12-18T08:02:48;6.22;;;4.90;;
39750;SDS011;37579;51.074;17.004;2022-12-18T08:05:14;5.57;;;4.55;;
39750;SDS011;37579;51.074;17.004;2022-12-18T08:07:40;7.55;;;4.82;;
39750;SDS011;37579;51.074;17.004;2022-12-18T08:10:05;6.47;;;4.90;;
39750;SDS011;37579;51.074;17.004;2022-12-18T08:12:32;7.30;;;5.43;;
39750;SDS011;37579;51.074;17.004;2022-12-18T08:14:58;7.05;;;4.63;;
39750;SDS011;37579;51.074;17.004;2022-12-18T08:17:23;6.85;;;4.80;;
39750;SDS011;37579;51.074;17.004;2022-12-18T08:19:49;5.60;;;4.45;;
39750;SDS011;37579;51.074;17.004;2022-12-18T08:22:15;6.47;;;4.45;;
39750;SDS011;37579;51.074;17.004;2022-12-18T08:24:40;6.18;;;4.65;;
39750;SDS011;37579;51.074;17.004;2022-12-18T08:27:06;6.70;;;5.15;;
39750;SDS011;37579;51.074;17.004;2022-12-18T08:29:32;5.80;;;4.53;;
39750;SDS011;37579;51.074;17.004;2022-12-18T08:31:59;7.03;;;5.22;;
39750;SDS011;37579;51.074;17.004;2022-12-18T08:34:24;7.45;;;5.15;;
39750;SDS011;37579;51.074;17.004;2022-12-18T08:36:50;6.30;;;4.90;;
39750;SDS011;37579;51.074;17.004;2022-12-18T08:39:16;5.82;;;4.60;;
39750;SDS011;37579;51.074;17.004;2022-12-18T08:41:42;5.90;;;4.47;;
39750;SDS011;37579;51.074;17.004;2022-12-18T08:44:07;6.75;;;5.15;;
39750;SDS011;37579;51.074;17.004;2022-12-18T08:46:52;6.70;;;5.00;;
39750;SDS011;37579;51.074;17.004;2022-12-18T08:49:17;6.20;;;5.00;;
39750;SDS011;37579;51.074;17.004;2022-12-18T08:51:43;6.13;;;4.57;;
39750;SDS011;37579;51.074;17.004;2022-12-18T08:54:12;7.03;;;4.80;;
39750;SDS011;37579;51.074;17.004;2022-12-18T08:56:41;6.10;;;4.57;;
39750;SDS011;37579;51.074;17.004;2022-12-18T08:59:06;7.43;;;5.35;;
39750;SDS011;37579;51.074;17.004;2022-12-18T09:01:33;7.35;;;5.60;;
39750;SDS011;37579;51.074;17.004;2022-12-18T09:03:59;7.15;;;5.97;;
39750;SDS011;37579;51.074;17.004;2022-12-18T09:06:25;9.98;;;7.15;;
39750;SDS011;37579;51.074;17.004;2022-12-18T09:08:51;11.18;;;7.50;;
39750;SDS011;37579;51.074;17.004;2022-12-18T09:11:21;14.80;;;9.88;;
39750;SDS011;37579;51.074;17.004;2022-12-18T09:13:49;13.32;;;10.25;;
39750;SDS011;37579;51.074;17.004;2022-12-18T09:16:15;15.45;;;10.77;;
39750;SDS011;37579;51.074;17.004;2022-12-18T09:18:41;16.50;;;11.43;;
39750;SDS011;37579;51.074;17.004;2022-12-18T09:21:08;16.73;;;12.35;;
39750;SDS011;37579;51.074;17.004;2022-12-18T09:23:39;15.38;;;11.85;;
39750;SDS011;37579;51.074;17.004;2022-12-18T09:26:04;16.65;;;12.88;;
39750;SDS011;37579;51.074;17.004;2022-12-18T09:28:30;15.85;;;12.23;;
39750;SDS011;37579;51.074;17.004;2022-12-18T09:30:56;16.63;;;11.95;;
39750;SDS011;37579;51.074;17.004;2022-12-18T09:33:22;16.73;;;11.98;;
39750;SDS011;37579;51.074;17.004;2022-12-18T09:35:48;15.82;;;11.70;;
39750;SDS011;37579;51.074;17.004;2022-12-18T09:38:15;15.15;;;11.07;;
39750;SDS011;37579;51.074;17.004;2022-12-18T09:40:50;15.13;;;11.20;;
39750;SDS011;37579;51.074;17.004;2022-12-18T09:43:33;13.70;;;10.07;;
39750;SDS011;37579;51.074;17.004;2022-12-18T09:46:10;13.82;;;10.30;;
39750;SDS011;37579;51.074;17.004;2022-12-18T09:48:41;15.95;;;10.50;;
39750;SDS011;37579;51.074;17.004;2022-12-18T09:51:15;14.43;;;10.02;;
39750;SDS011;37579;51.074;17.004;2022-12-18T09:53:49;13.05;;;9.73;;
39750;SDS011;37579;51.074;17.004;2022-12-18T09:56:19;12.73;;;8.93;;
39750;SDS011;37579;51.074;17.004;2022-12-18T10:01:18;14.25;;;9.50;;
39750;SDS011;37579;51.074;17.004;2022-12-18T10:03:50;11.43;;;8.35;;
39750;SDS011;37579;51.074;17.004;2022-12-18T10:09:30;11.52;;;8.57;;
39750;SDS011;37579;51.074;17.004;2022-12-18T10:18:10;8.85;;;6.97;;
39750;SDS011;37579;51.074;17.004;2022-12-18T10:20:45;10.82;;;7.32;;
39750;SDS011;37579;51.074;17.004;2022-12-18T10:23:33;9.57;;;7.10;;
39750;SDS011;37579;51.074;17.004;2022-12-18T10:26:14;9.75;;;6.90;;
39750;SDS011;37579;51.074;17.004;2022-12-18T10:28:40;9.05;;;6.68;;
39750;SDS011;37579;51.074;17.004;2022-12-18T10:31:07;9.38;;;6.53;;
39750;SDS011;37579;51.074;17.004;2022-12-18T10:33:45;8.48;;;6.93;;
39750;SDS011;37579;51.074;17.004;2022-12-18T10:36:11;9.13;;;6.85;;
39750;SDS011;37579;51.074;17.004;2022-12-18T10:38:38;9.18;;;6.60;;
39750;SDS011;37579;51.074;17.004;2022-12-18T10:43:47;9.27;;;6.78;;
39750;SDS011;37579;51.074;17.004;2022-12-18T10:46:14;10.80;;;7.00;;
39750;SDS011;37579;51.074;17.004;2022-12-18T10:48:55;11.45;;;7.32;;
39750;SDS011;37579;51.074;17.004;2022-12-18T10:51:32;9.02;;;6.80;;
39750;SDS011;37579;51.074;17.004;2022-12-18T10:54:04;9.05;;;7.18;;
39750;SDS011;37579;51.074;17.004;2022-12-18T10:56:37;8.60;;;6.55;;
39750;SDS011;37579;51.074;17.004;2022-12-18T10:59:08;10.48;;;6.80;;
39750;SDS011;37579;51.074;17.004;2022-12-18T11:01:55;9.13;;;6.40;;
39750;SDS011;37579;51.074;17.004;2022-12-18T11:04:28;8.55;;;6.47;;
39750;SDS011;37579;51.074;17.004;2022-12-18T11:09:24;9.70;;;6.47;;
39750;SDS011;37579;51.074;17.004;2022-12-18T11:11:53;9.85;;;6.95;;
39750;SDS011;37579;51.074;17.004;2022-12-18T11:14:34;11.80;;;7.32;;
39750;SDS011;37579;51.074;17.004;2022-12-18T11:20:05;10.38;;;6.82;;
39750;SDS011;37579;51.074;17.004;2022-12-18T11:22:44;10.65;;;6.65;;
39750;SDS011;37579;51.074;17.004;2022-12-18T11:25:23;11.55;;;6.53;;
39750;SDS011;37579;51.074;17.004;2022-12-18T11:28:00;12.52;;;7.18;;
39750;SDS011;37579;51.074;17.004;2022-12-18T11:30:28;10.93;;;6.95;;
39750;SDS011;37579;51.074;17.004;2022-12-18T11:33:04;12.80;;;7.73;;
39750;SDS011;37579;51.074;17.004;2022-12-18T11:38:28;11.60;;;6.72;;
39750;SDS011;37579;51.074;17.004;2022-12-18T11:41:03;11.60;;;6.43;;
39750;SDS011;37579;51.074;17.004;2022-12-18T11:46:33;9.57;;;6.63;;
39750;SDS011;37579;51.074;17.004;2022-12-18T11:49:55;9.32;;;6.55;;
39750;SDS011;37579;51.074;17.004;2022-12-18T11:52:18;10.60;;;7.18;;
39750;SDS011;37579;51.074;17.004;2022-12-18T11:54:45;9.85;;;6.70;;
39750;SDS011;37579;51.074;17.004;2022-12-18T11:57:22;23.52;;;6.47;;
39750;SDS011;37579;51.074;17.004;2022-12-18T12:02:43;8.15;;;6.03;;
39750;SDS011;37579;51.074;17.004;2022-12-18T12:19:02;16.40;;;6.72;;
39750;SDS011;37579;51.074;17.004;2022-12-18T12:21:39;9.25;;;6.68;;
39750;SDS011;37579;51.074;17.004;2022-12-18T12:27:03;11.15;;;6.68;;
39750;SDS011;37579;51.074;17.004;2022-12-18T12:32:53;8.65;;;6.43;;
39750;SDS011;37579;51.074;17.004;2022-12-18T12:35:03;9.18;;;6.25;;
39750;SDS011;37579;51.074;17.004;2022-12-18T12:40:45;9.43;;;6.78;;
39750;SDS011;37579;51.074;17.004;2022-12-18T12:46:06;9.27;;;6.72;;
39750;SDS011;37579;51.074;17.004;2022-12-18T12:48:49;10.98;;;6.63;;
39750;SDS011;37579;51.074;17.004;2022-12-18T12:51:20;8.65;;;5.85;;
39750;SDS011;37579;51.074;17.004;2022-12-18T12:53:47;7.43;;;5.97;;
39750;SDS011;37579;51.074;17.004;2022-12-18T12:56:14;9.82;;;6.50;;
39750;SDS011;37579;51.074;17.004;2022-12-18T13:01:29;9.93;;;6.22;;
39750;SDS011;37579;51.074;17.004;2022-12-18T13:07:34;8.63;;;6.07;;
39750;SDS011;37579;51.074;17.004;2022-12-18T13:18:26;13.43;;;6.70;;
39750;SDS011;37579;51.074;17.004;2022-12-18T13:25:53;14.63;;;6.18;;
39750;SDS011;37579;51.074;17.004;2022-12-18T13:31:05;9.88;;;6.18;;
39750;SDS011;37579;51.074;17.004;2022-12-18T13:33:38;8.00;;;6.20;;
39750;SDS011;37579;51.074;17.004;2022-12-18T13:38:38;8.95;;;5.60;;
39750;SDS011;37579;51.074;17.004;2022-12-18T13:41:21;10.80;;;7.03;;
39750;SDS011;37579;51.074;17.004;2022-12-18T13:43:52;10.05;;;5.82;;
39750;SDS011;37579;51.074;17.004;2022-12-18T13:46:29;11.60;;;6.90;;
39750;SDS011;37579;51.074;17.004;2022-12-18T13:51:52;13.32;;;6.50;;
39750;SDS011;37579;51.074;17.004;2022-12-18T13:54:21;13.48;;;7.68;;
39750;SDS011;37579;51.074;17.004;2022-12-18T13:56:49;12.40;;;7.65;;
39750;SDS011;37579;51.074;17.004;2022-12-18T14:01:47;17.60;;;9.50;;
39750;SDS011;37579;51.074;17.004;2022-12-18T14:06:58;26.55;;;12.95;;
39750;SDS011;37579;51.074;17.004;2022-12-18T14:09:29;30.95;;;15.45;;
39750;SDS011;37579;51.074;17.004;2022-12-18T14:11:59;27.23;;;14.07;;
39750;SDS011;37579;51.074;17.004;2022-12-18T14:14:45;33.55;;;14.55;;
39750;SDS011;37579;51.074;17.004;2022-12-18T14:17:13;28.63;;;13.73;;
39750;SDS011;37579;51.074;17.004;2022-12-18T14:19:41;26.70;;;12.90;;
39750;SDS011;37579;51.074;17.004;2022-12-18T14:22:20;23.00;;;12.80;;
39750;SDS011;37579;51.074;17.004;2022-12-18T14:25:05;22.05;;;12.93;;
39750;SDS011;37579;51.074;17.004;2022-12-18T14:27:52;27.80;;;14.02;;
39750;SDS011;37579;51.074;17.004;2022-12-18T14:30:40;29.02;;;15.45;;
39750;SDS011;37579;51.074;17.004;2022-12-18T14:33:11;28.05;;;14.73;;
39750;SDS011;37579;51.074;17.004;2022-12-18T14:35:43;29.20;;;14.93;;
39750;SDS011;37579;51.074;17.004;2022-12-18T14:41:02;35.90;;;19.73;;
39750;SDS011;37579;51.074;17.004;2022-12-18T14:43:34;38.65;;;23.30;;
39750;SDS011;37579;51.074;17.004;2022-12-18T14:46:01;40.95;;;25.33;;
39750;SDS011;37579;51.074;17.004;2022-12-18T14:51:12;36.80;;;22.75;;
39750;SDS011;37579;51.074;17.004;2022-12-18T14:53:44;41.70;;;23.05;;
39750;SDS011;37579;51.074;17.004;2022-12-18T14:56:16;38.55;;;22.88;;
39750;SDS011;37579;51.074;17.004;2022-12-18T14:58:52;37.75;;;22.35;;
39750;SDS011;37579;51.074;17.004;2022-12-18T15:01:21;35.08;;;21.50;;
39750;SDS011;37579;51.074;17.004;2022-12-18T15:03:59;34.15;;;19.95;;
39750;SDS011;37579;51.074;17.004;2022-12-18T15:06:27;33.42;;;19.48;;
39750;SDS011;37579;51.074;17.004;2022-12-18T15:08:59;29.15;;;19.35;;
39750;SDS011;37579;51.074;17.004;2022-12-18T15:14:21;33.80;;;19.38;;
39750;SDS011;37579;51.074;17.004;2022-12-18T15:16:53;29.73;;;18.90;;
39750;SDS011;37579;51.074;17.004;2022-12-18T15:19:21;31.23;;;18.70;;
39750;SDS011;37579;51.074;17.004;2022-12-18T15:21:50;30.02;;;18.33;;
39750;SDS011;37579;51.074;17.004;2022-12-18T15:24:22;26.10;;;17.95;;
39750;SDS011;37579;51.074;17.004;2022-12-18T15:26:52;30.52;;;18.75;;
39750;SDS011;37579;51.074;17.004;2022-12-18T15:29:21;28.38;;;18.08;;
39750;SDS011;37579;51.074;17.004;2022-12-18T15:32:10;27.42;;;18.23;;
39750;SDS011;37579;51.074;17.004;2022-12-18T15:34:44;26.13;;;16.95;;
39750;SDS011;37579;51.074;17.004;2022-12-18T15:37:10;31.17;;;19.23;;
39750;SDS011;37579;51.074;17.004;2022-12-18T15:39:35;28.60;;;19.50;;
39750;SDS011;37579;51.074;17.004;2022-12-18T15:42:01;32.22;;;19.50;;
39750;SDS011;37579;51.074;17.004;2022-12-18T15:45:07;28.10;;;18.15;;
39750;SDS011;37579;51.074;17.004;2022-12-18T15:47:36;25.83;;;17.38;;
39750;SDS011;37579;51.074;17.004;2022-12-18T15:50:02;26.20;;;17.35;;
39750;SDS011;37579;51.074;17.004;2022-12-18T15:52:29;29.77;;;17.63;;
39750;SDS011;37579;51.074;17.004;2022-12-18T15:54:55;27.23;;;17.83;;
39750;SDS011;37579;51.074;17.004;2022-12-18T15:57:39;26.48;;;17.98;;
39750;SDS011;37579;51.074;17.004;2022-12-18T16:00:05;25.48;;;17.75;;
39750;SDS011;37579;51.074;17.004;2022-12-18T16:02:31;28.17;;;18.35;;
39750;SDS011;37579;51.074;17.004;2022-12-18T16:04:57;28.65;;;18.63;;
39750;SDS011;37579;51.074;17.004;2022-12-18T16:07:23;26.05;;;18.00;;
39750;SDS011;37579;51.074;17.004;2022-12-18T16:09:49;25.75;;;17.15;;
39750;SDS011;37579;51.074;17.004;2022-12-18T16:12:16;24.95;;;17.13;;
39750;SDS011;37579;51.074;17.004;2022-12-18T16:14:47;26.10;;;17.60;;
39750;SDS011;37579;51.074;17.004;2022-12-18T16:17:14;26.88;;;17.45;;
39750;SDS011;37579;51.074;17.004;2022-12-18T16:19:40;30.00;;;19.15;;
39750;SDS011;37579;51.074;17.004;2022-12-18T16:22:15;27.75;;;19.33;;
39750;SDS011;37579;51.074;17.004;2022-12-18T16:24:50;30.90;;;18.92;;
39750;SDS011;37579;51.074;17.004;2022-12-18T16:27:17;32.13;;;19.90;;
39750;SDS011;37579;51.074;17.004;2022-12-18T16:29:44;33.17;;;19.50;;
39750;SDS011;37579;51.074;17.004;2022-12-18T16:32:14;29.90;;;19.08;;
39750;SDS011;37579;51.074;17.004;2022-12-18T16:34:42;27.92;;;17.52;;
39750;SDS011;37579;51.074;17.004;2022-12-18T16:37:09;29.17;;;17.90;;
39750;SDS011;37579;51.074;17.004;2022-12-18T16:39:37;28.70;;;17.98;;
39750;SDS011;37579;51.074;17.004;2022-12-18T16:42:04;33.20;;;19.40;;
39750;SDS011;37579;51.074;17.004;2022-12-18T16:44:37;33.25;;;19.17;;
39750;SDS011;37579;51.074;17.004;2022-12-18T16:47:03;31.13;;;18.38;;
39750;SDS011;37579;51.074;17.004;2022-12-18T16:49:29;33.10;;;18.48;;
39750;SDS011;37579;51.074;17.004;2022-12-18T16:51:55;31.92;;;18.33;;
39750;SDS011;37579;51.074;17.004;2022-12-18T16:54:21;30.35;;;17.83;;
39750;SDS011;37579;51.074;17.004;2022-12-18T16:56:47;33.35;;;17.63;;